Huvudsida
METAR-TAF:

METAR-TAF

Flygplatser :

Kulob, Tadzjikistan

latitud: 37-59-18N, longitud: 069-48-18E, höjd: 699 m

Aktuellt väderrapport

Denna rapport gjordes för 34 minuter sedan, klockan 01:00 UTC
Vind 6 kt från nord/nordost
Temperatur 21°C
Fuktighet 46%
Tryck 1013 hPa
Sikt 10 km eller mer

METAR: UTDK 220100Z 03003MPS 9999 NSC 21/09 Q1013 R01/09//70 RMK QFE702/0937

Tid: 06:34 (01:34 UTC)

Väderprognos

Denna rapport gjordes för 1 timme och 34 minuter sedan, klockan 00:00 UTC
Prognos gäller från 22 kl. 01 UTC till 22 kl. 10 UTC
Vind 4 kt varierande vindriktning
Sikt: 6000 m
Spridda moln på en höjd av 2000 ft
Brutna moln på en höjd av 4000 ft
Temporärt
från 22 kl. 01 UTC till 22 kl. 04 UTC
Vind 10 kt från nord/nordost

TAF: UTDK 220000Z 2201/2210 VRB02MPS 6000 SCT020 BKN040 TEMPO 2201/2204 03005MPS

Aktuella väderrapporter och prognoser från 4000 flygplatser (METAR- och TAF-rapporter).

De tillgängliga stationerna syns som gula och röda prickar på kartan.

För musen över prickarna för att se namnen på stationerna.

Klicka sedan för att få väderrapporter och prognoser.

För att ändra kartan: Klicka på de gröna knapparna med ett svart kors på för att zooma in; den gröna knappen med ett streck på för att zooma ut; eller på de gröna pilarna för angränsande kartor.


METAR-TAF: